Aérodrome :
LOGIN :

S'inscrire | Disclaimer

   EN    FR    IT 

 










Légende :    VFR   VFR Marginal   IFR   IFR Intensif   IFR Très Intensif
Visi : 
Plafond : 
>= 8 km
>= 3000ft
5 à 8 km
1000 à 3000 ft
1500m à 5 km
500 à 1000 ft
800 à 1500m
200 à 500 ft
< 800m
< 200 ft
Symboles :   Orages  Brouillard  Fortes neiges  Fortes précipitations  Vent > 20 kt
SIGMETs :   Divers  Orages  Givrage  Turbulence  Onde Orograph.  Cendres Volcan.







- Altitude de l'aérodrome : 1504 ft
- Code IATA : PNA


LEPP - Noain Pamplona

DERNIER METAR :
  • 181830Z 18007KT 120V270 CAVOK 10/M02 Q1019

METARs EXPIRÉS :
  • 181800Z 15007KT 110V200 CAVOK 10/M02 Q1018
  • 181730Z 10004KT 030V170 CAVOK 10/M02 Q1019
  • 181700Z 12008KT 060V170 CAVOK 10/M02 Q1018
  • 181630Z 14006KT 080V190 CAVOK 10/M04 Q1018
  • 181600Z 25004KT 190V310 CAVOK 10/M04 Q1019

TAF TAF LEPP
Valide du 18 à 15h jusqu'au 19 à 15h UTC


181400Z 1815/1915 15009KT CAVOK TX11/1914Z TN01/1906Z
TEMPO 1815/1818 15015G25KT
PROB30
TEMPO 1818/1821 RA
Pas de NOTAMs connus pour ce terrain.



MET'MAP, la Météo Aéronautique d'un coup d'oeil ! - Copyright ORBIFLY Décembre 2007 - Disclaimer

ORBIFLY MET'MAP TEAM :

Programmation & Développement : Alexandra Zaïnal
Conception & Développement : Baudouin d'Aumeries
Co-Programmation & Développement : Marc-Olivier Méhu
Soutien technique & logistique : Manuel Goepfert

Contact : metmap@orbifly.com




SOURCES & CREDITS :

   NOAA